Time;durP1;ratioP1;P1;durP2;ratioP2;P2;SDS_P1;SDS_P2;PMS_P1;PMS_P2;Temp;Humidity;BMP_temperature;BMP_pressure;BME280_temperature;BME280_humidity;BME280_pressure;Samples;Min_cycle;Max_cycle;Signal;HPM_P1;HPM_P2
2022/05/08 00:00:07;;;;;;;8.32;5.03;;;14.30;98.90;;;;;;5025548;28;20021;-69
2022/05/08 00:02:35;;;;;;;10.70;5.30;;;14.30;99.00;;;;;;5025265;28;20045;-70
2022/05/08 00:05:00;;;;;;;8.60;4.68;;;14.30;99.10;;;;;;5024740;28;20021;-70
2022/05/08 00:07:26;;;;;;;10.07;5.55;;;14.30;99.20;;;;;;5008058;28;20036;-68
2022/05/08 00:09:52;;;;;;;9.55;5.35;;;14.20;99.30;;;;;;5025396;28;20069;-69
2022/05/08 00:12:18;;;;;;;10.75;5.40;;;14.20;99.50;;;;;;5025416;28;20237;-68
2022/05/08 00:14:44;;;;;;;8.40;5.32;;;14.10;99.60;;;;;;5024348;28;20029;-69
2022/05/08 00:17:13;;;;;;;10.25;5.88;;;14.10;99.80;;;;;;5024252;28;20029;-70
2022/05/08 00:19:40;;;;;;;10.95;5.65;;;14.00;99.90;;;;;;5022494;28;20021;-70
2022/05/08 00:22:06;;;;;;;9.63;5.88;;;13.90;99.90;;;;;;5023909;28;20089;-69
2022/05/08 00:24:33;;;;;;;12.85;6.20;;;13.90;99.90;;;;;;5007895;28;20022;-69
2022/05/08 00:26:58;;;;;;;14.85;6.10;;;13.80;99.90;;;;;;5025036;28;20038;-69
2022/05/08 00:29:25;;;;;;;10.20;5.82;;;13.80;99.90;;;;;;5024006;28;20022;-69
2022/05/08 00:31:51;;;;;;;11.90;5.93;;;13.80;99.90;;;;;;5025036;28;20030;-69
2022/05/08 00:34:16;;;;;;;11.32;6.53;;;13.80;99.90;;;;;;5023677;28;20030;-69
2022/05/08 00:36:42;;;;;;;13.48;6.60;;;13.70;99.90;;;;;;5023959;28;20058;-69
2022/05/08 00:39:08;;;;;;;8.68;6.60;;;13.70;99.90;;;;;;5023857;28;20022;-67
2022/05/08 00:41:33;;;;;;;12.10;5.82;;;13.60;99.90;;;;;;5024839;28;20021;-67
2022/05/08 00:43:59;;;;;;;11.07;6.85;;;13.60;99.90;;;;;;5023677;28;20033;-68
2022/05/08 00:46:25;;;;;;;10.43;6.47;;;13.50;99.90;;;;;;5023744;28;20029;-69
2022/05/08 00:48:50;;;;;;;9.23;6.45;;;13.50;99.90;;;;;;5024860;28;20333;-68
2022/05/08 00:51:17;;;;;;;12.13;6.35;;;13.40;99.90;;;;;;5007178;28;20351;-68
2022/05/08 00:53:46;;;;;;;12.13;7.38;;;13.30;99.90;;;;;;5023299;28;20053;-69
2022/05/08 00:56:13;;;;;;;10.45;7.05;;;13.30;99.90;;;;;;5024731;28;20021;-68
2022/05/08 00:58:40;;;;;;;12.30;7.10;;;13.30;99.90;;;;;;5006987;28;20328;-68
2022/05/08 01:01:07;;;;;;;14.13;7.65;;;13.20;99.90;;;;;;5007202;28;20049;-68
2022/05/08 01:03:33;;;;;;;14.32;7.53;;;13.10;99.90;;;;;;5023448;28;20201;-68
2022/05/08 01:06:05;;;;;;;12.20;7.65;;;13.10;99.90;;;;;;5023543;28;20022;-68
2022/05/08 01:08:33;;;;;;;10.68;7.45;;;13.00;99.90;;;;;;5024590;28;20033;-68
2022/05/08 01:11:00;;;;;;;15.40;7.75;;;13.00;99.90;;;;;;5024292;28;20053;-68
2022/05/08 01:13:26;;;;;;;15.98;8.18;;;12.90;99.90;;;;;;5023136;28;20307;-68
2022/05/08 01:15:54;;;;;;;14.25;8.27;;;12.90;99.90;;;;;;5023313;28;20022;-68
2022/05/08 01:18:20;;;;;;;14.13;8.73;;;12.80;99.90;;;;;;5022926;28;20030;-68
2022/05/08 01:20:46;;;;;;;17.50;8.52;;;12.80;99.90;;;;;;5021778;28;20018;-68
2022/05/08 01:23:13;;;;;;;14.63;8.60;;;12.80;99.90;;;;;;5024023;28;20017;-69
2022/05/08 01:25:49;;;;;;;11.73;8.30;;;12.80;99.90;;;;;;5023993;28;20312;-69
2022/05/08 01:28:15;;;;;;;13.75;8.52;;;12.70;99.90;;;;;;5023956;28;20064;-68
2022/05/08 01:30:44;;;;;;;14.85;8.45;;;12.60;99.90;;;;;;5006652;28;20025;-68
2022/05/08 01:33:11;;;;;;;14.93;8.40;;;12.70;99.90;;;;;;5006143;28;20041;-67
2022/05/08 01:35:37;;;;;;;13.63;8.68;;;12.70;99.90;;;;;;5022870;28;20026;-68
2022/05/08 01:38:04;;;;;;;16.20;9.10;;;12.60;99.90;;;;;;5006752;28;20026;-68
2022/05/08 01:40:30;;;;;;;15.57;8.48;;;12.60;99.90;;;;;;5006807;28;20024;-69
2022/05/08 01:42:56;;;;;;;16.73;9.10;;;12.60;99.90;;;;;;5023855;28;20026;-68
2022/05/08 01:45:22;;;;;;;13.35;9.25;;;12.60;99.90;;;;;;5023878;28;20292;-68
2022/05/08 01:50:36;;;;;;;16.38;8.75;;;12.60;99.90;;;;;;5023088;28;20018;-67
2022/05/08 01:53:01;;;;;;;18.63;9.13;;;12.60;99.90;;;;;;5022289;28;20022;-68
2022/05/08 01:55:27;;;;;;;13.13;8.65;;;12.50;99.90;;;;;;5022660;28;20345;-68
2022/05/08 01:57:53;;;;;;;16.73;9.27;;;12.50;99.90;;;;;;5023619;28;20113;-68
2022/05/08 02:00:20;;;;;;;16.90;9.18;;;12.50;99.90;;;;;;5022798;28;20034;-70
2022/05/08 02:02:48;;;;;;;15.70;9.07;;;12.50;99.90;;;;;;5022507;28;20064;-70
2022/05/08 02:05:15;;;;;;;20.90;9.90;;;12.40;99.90;;;;;;5022817;28;20224;-68
2022/05/08 02:07:43;;;;;;;16.42;9.95;;;12.40;99.90;;;;;;5022739;28;20049;-67
2022/05/08 02:10:09;;;;;;;17.35;10.85;;;12.40;99.90;;;;;;5023747;28;20022;-68
2022/05/08 02:12:35;;;;;;;16.73;9.80;;;12.40;99.90;;;;;;5006125;28;20093;-68
2022/05/08 02:15:01;;;;;;;18.90;10.48;;;12.40;99.90;;;;;;5023728;28;20186;-68
2022/05/08 02:17:26;;;;;;;16.17;10.13;;;12.40;99.90;;;;;;5006303;28;20034;-68
2022/05/08 02:19:52;;;;;;;16.70;10.48;;;12.40;99.90;;;;;;5023335;28;20018;-70
2022/05/08 02:22:18;;;;;;;16.65;10.40;;;12.40;99.90;;;;;;5021399;28;20030;-68
2022/05/08 02:24:43;;;;;;;17.88;10.48;;;12.30;99.90;;;;;;5022555;28;20100;-69
2022/05/08 02:27:09;;;;;;;19.80;11.07;;;12.30;99.90;;;;;;5005803;28;20026;-68
2022/05/08 02:29:34;;;;;;;17.83;10.77;;;12.30;99.90;;;;;;5006093;28;20072;-68
2022/05/08 02:32:00;;;;;;;17.15;10.18;;;12.30;99.90;;;;;;5008828;28;20025;-68
2022/05/08 02:34:26;;;;;;;21.27;13.75;;;12.20;99.90;;;;;;5027187;28;20021;-68
2022/05/08 02:36:51;;;;;;;19.67;10.90;;;12.20;99.90;;;;;;5009951;28;20221;-68
2022/05/08 02:39:17;;;;;;;16.02;10.85;;;12.20;99.90;;;;;;5009789;28;20213;-66
2022/05/08 02:41:43;;;;;;;18.15;10.65;;;12.20;99.90;;;;;;5009819;28;20253;-68
2022/05/08 02:44:08;;;;;;;18.65;10.80;;;12.20;99.90;;;;;;5026884;28;20030;-68
2022/05/08 02:46:34;;;;;;;21.13;11.73;;;12.20;99.90;;;;;;5026974;28;20025;-67
2022/05/08 02:48:59;;;;;;;18.55;11.57;;;12.10;99.90;;;;;;4993384;28;20044;-67
2022/05/08 02:51:25;;;;;;;17.23;12.07;;;12.10;99.90;;;;;;5009515;28;20025;-68
2022/05/08 02:53:51;;;;;;;16.40;11.55;;;12.00;99.90;;;;;;5026544;28;20062;-68
2022/05/08 02:59:03;;;;;;;21.88;12.43;;;12.00;99.90;;;;;;5025539;28;20045;-68
2022/05/08 03:01:28;;;;;;;19.35;12.27;;;12.00;99.90;;;;;;5026704;28;20052;-67
2022/05/08 03:03:54;;;;;;;18.52;12.43;;;12.00;99.90;;;;;;5025532;28;20197;-68
2022/05/08 03:06:19;;;;;;;20.60;12.77;;;12.00;99.90;;;;;;5026794;28;20089;-67
2022/05/08 03:08:45;;;;;;;17.70;11.90;;;12.00;99.90;;;;;;5026804;28;20025;-68
2022/05/08 03:11:26;;;;;;;18.00;12.65;;;12.00;99.90;;;;;;5026679;28;20272;-67
2022/05/08 03:13:52;;;;;;;19.33;12.48;;;12.00;99.90;;;;;;5025353;28;20336;-69
2022/05/08 03:16:19;;;;;;;20.25;12.88;;;12.00;99.90;;;;;;5009209;28;20064;-68
2022/05/08 03:18:45;;;;;;;19.83;12.38;;;12.00;99.90;;;;;;5025437;28;20022;-68
2022/05/08 03:21:13;;;;;;;17.67;12.27;;;12.00;99.90;;;;;;5023501;28;20026;-69
2022/05/08 03:23:39;;;;;;;19.70;12.50;;;12.00;99.90;;;;;;5008754;28;20032;-69
2022/05/08 03:26:06;;;;;;;22.48;14.15;;;12.00;99.90;;;;;;5025355;28;20056;-68
2022/05/08 03:28:32;;;;;;;19.75;13.48;;;12.10;99.90;;;;;;5026041;28;20026;-68
2022/05/08 03:30:59;;;;;;;21.25;13.77;;;12.10;99.90;;;;;;5025302;28;20089;-68
2022/05/08 03:33:26;;;;;;;21.30;14.43;;;12.20;99.90;;;;;;5024742;28;20030;-69
2022/05/08 03:35:51;;;;;;;18.58;13.85;;;12.20;99.90;;;;;;5026140;28;20093;-68
2022/05/08 03:38:18;;;;;;;21.35;13.35;;;12.20;99.90;;;;;;5025237;28;20027;-68
2022/05/08 03:40:44;;;;;;;21.67;14.27;;;12.30;99.90;;;;;;5026178;28;20029;-67
2022/05/08 03:43:10;;;;;;;22.58;13.48;;;12.30;99.90;;;;;;5024468;28;20021;-68
2022/05/08 03:45:36;;;;;;;19.92;13.85;;;12.30;99.90;;;;;;5025691;28;20037;-68
2022/05/08 03:48:02;;;;;;;20.35;14.35;;;12.30;99.90;;;;;;5025652;28;20221;-68
2022/05/08 03:50:29;;;;;;;21.50;13.38;;;12.40;99.90;;;;;;5024867;28;20025;-68
2022/05/08 03:52:56;;;;;;;22.77;14.30;;;12.40;99.90;;;;;;5025834;28;20081;-70
2022/05/08 03:55:23;;;;;;;19.38;14.45;;;12.50;99.90;;;;;;5024512;28;20044;-68
2022/05/08 03:57:48;;;;;;;19.42;13.57;;;12.60;99.90;;;;;;5024188;28;20048;-70
2022/05/08 04:00:15;;;;;;;21.42;13.55;;;12.60;99.90;;;;;;5024709;28;20026;-70
2022/05/08 04:02:41;;;;;;;21.55;13.65;;;12.60;99.90;;;;;;5024491;28;20037;-68
2022/05/08 04:05:08;;;;;;;19.92;13.40;;;12.60;99.90;;;;;;5024191;28;20088;-68
2022/05/08 04:07:34;;;;;;;18.27;12.82;;;12.60;99.90;;;;;;5024599;28;20081;-69
2022/05/08 04:10:00;;;;;;;18.70;13.95;;;12.60;99.90;;;;;;5008036;28;20096;-69
2022/05/08 04:12:26;;;;;;;18.10;12.48;;;12.60;99.90;;;;;;5025516;28;20190;-68
2022/05/08 04:14:52;;;;;;;16.90;11.93;;;12.60;99.90;;;;;;5025340;28;20038;-69
2022/05/08 04:17:19;;;;;;;16.02;11.75;;;12.60;99.90;;;;;;5024334;28;20028;-69
2022/05/08 04:19:46;;;;;;;15.73;12.00;;;12.60;99.90;;;;;;5024019;28;20364;-68
2022/05/08 04:24:58;;;;;;;17.15;12.63;;;12.60;99.90;;;;;;5010546;28;20018;-69
2022/05/08 04:27:24;;;;;;;18.08;12.45;;;12.70;99.90;;;;;;5023669;28;20037;-69
2022/05/08 04:29:50;;;;;;;20.40;14.13;;;12.70;99.90;;;;;;5025175;28;20068;-69
2022/05/08 04:32:16;;;;;;;20.95;13.48;;;12.70;99.90;;;;;;5025079;28;20186;-68
2022/05/08 04:34:41;;;;;;;23.08;16.27;;;12.90;99.90;;;;;;5023361;28;20030;-69
2022/05/08 04:37:07;;;;;;;22.13;15.68;;;12.90;99.90;;;;;;5025153;28;20018;-68
2022/05/08 04:39:33;;;;;;;22.27;15.05;;;12.80;99.90;;;;;;5024770;28;20065;-68
2022/05/08 04:41:59;;;;;;;22.45;15.18;;;12.70;99.90;;;;;;5025061;28;20018;-68
2022/05/08 04:44:24;;;;;;;22.77;15.70;;;12.70;99.90;;;;;;5007241;28;20073;-68
2022/05/08 04:46:50;;;;;;;18.83;14.88;;;12.80;99.90;;;;;;5024732;28;20320;-69
2022/05/08 04:49:16;;;;;;;20.50;15.07;;;12.80;99.90;;;;;;5023825;28;20081;-69
2022/05/08 04:51:42;;;;;;;21.00;15.80;;;12.80;99.90;;;;;;5024725;28;20093;-68
2022/05/08 04:54:08;;;;;;;20.17;15.10;;;12.80;99.90;;;;;;5022599;28;20379;-68
2022/05/08 04:56:34;;;;;;;24.40;15.57;;;12.90;99.90;;;;;;5023622;28;20022;-69
2022/05/08 04:58:59;;;;;;;22.73;15.40;;;12.90;99.90;;;;;;5006836;28;20208;-68
2022/05/08 05:01:25;;;;;;;20.55;15.15;;;13.00;99.90;;;;;;5023637;28;20018;-69
2022/05/08 05:03:51;;;;;;;23.25;15.43;;;12.90;99.90;;;;;;5024655;28;20026;-68
2022/05/08 05:06:17;;;;;;;22.60;15.38;;;12.80;99.90;;;;;;5023352;28;20045;-69
2022/05/08 05:08:43;;;;;;;21.38;15.07;;;12.80;99.90;;;;;;5024644;28;20025;-67
2022/05/08 05:11:09;;;;;;;19.90;15.27;;;12.80;99.90;;;;;;5024295;28;20361;-70
2022/05/08 05:13:36;;;;;;;21.90;15.48;;;12.90;99.90;;;;;;5023331;28;20038;-68
2022/05/08 05:16:03;;;;;;;20.55;14.98;;;12.80;99.90;;;;;;5023241;28;20108;-68
2022/05/08 05:18:28;;;;;;;20.77;14.75;;;12.80;99.90;;;;;;5023488;28;20029;-68
2022/05/08 05:20:54;;;;;;;20.77;14.65;;;12.80;99.90;;;;;;5023399;28;20026;-68
2022/05/08 05:23:19;;;;;;;25.13;14.70;;;12.80;99.90;;;;;;5021803;28;20044;-68
2022/05/08 05:25:45;;;;;;;20.58;14.43;;;12.70;99.90;;;;;;5023438;28;20331;-68
2022/05/08 05:28:11;;;;;;;21.17;14.57;;;12.70;99.90;;;;;;4990621;28;20114;-69
2022/05/08 05:30:37;;;;;;;21.17;14.77;;;12.60;99.90;;;;;;5024822;28;20063;-69
2022/05/08 05:33:03;;;;;;;20.80;14.88;;;12.60;99.90;;;;;;5024825;28;20049;-69
2022/05/08 05:35:28;;;;;;;20.63;15.15;;;12.50;99.90;;;;;;5023563;28;20048;-67
2022/05/08 05:37:54;;;;;;;24.42;16.33;;;12.60;99.90;;;;;;5023947;28;20321;-68
2022/05/08 05:40:20;;;;;;;23.65;16.48;;;12.60;99.90;;;;;;5007361;28;20052;-68
2022/05/08 05:42:47;;;;;;;23.85;15.27;;;12.70;99.90;;;;;;5024642;28;20033;-68
2022/05/08 05:45:13;;;;;;;23.42;14.75;;;12.80;99.90;;;;;;5024449;28;20030;-68
2022/05/08 05:47:54;;;;;;;20.92;14.65;;;13.00;99.90;;;;;;5024314;28;20026;-68
2022/05/08 05:50:21;;;;;;;18.55;14.00;;;13.00;99.90;;;;;;5023246;28;20049;-67
2022/05/08 05:52:47;;;;;;;17.75;13.65;;;13.10;99.90;;;;;;5006832;28;20068;-70
2022/05/08 05:55:13;;;;;;;20.25;13.77;;;13.10;99.90;;;;;;5022508;28;20109;-68
2022/05/08 05:57:39;;;;;;;21.23;15.02;;;13.10;99.90;;;;;;5023149;28;20045;-68
2022/05/08 06:00:09;;;;;;;21.60;14.57;;;13.10;99.90;;;;;;5022665;28;20048;-69
2022/05/08 06:02:35;;;;;;;20.98;15.52;;;13.20;99.90;;;;;;5022904;28;20037;-68
2022/05/08 06:05:00;;;;;;;19.73;14.30;;;13.20;99.90;;;;;;5023843;28;20297;-68
2022/05/08 06:07:26;;;;;;;25.20;16.48;;;13.30;99.90;;;;;;5027491;28;20022;-68
2022/05/08 06:09:52;;;;;;;23.05;15.48;;;13.30;99.90;;;;;;5026809;28;20045;-69
2022/05/08 06:12:17;;;;;;;21.45;15.07;;;13.30;99.90;;;;;;5026744;28;20018;-71
2022/05/08 06:14:46;;;;;;;23.13;15.13;;;13.20;99.90;;;;;;4994105;28;20061;-68
2022/05/08 06:17:12;;;;;;;22.35;15.75;;;13.10;99.90;;;;;;5027567;28;20032;-69
2022/05/08 06:19:38;;;;;;;21.75;15.88;;;13.10;99.90;;;;;;5010466;28;20030;-69
2022/05/08 06:22:04;;;;;;;26.27;16.80;;;13.00;99.90;;;;;;5027567;28;20045;-68
2022/05/08 06:24:30;;;;;;;25.73;16.17;;;13.00;99.90;;;;;;5024950;28;20030;-70
2022/05/08 06:26:56;;;;;;;25.98;16.38;;;13.00;99.90;;;;;;5027437;28;20085;-69
2022/05/08 06:29:22;;;;;;;22.67;15.25;;;13.00;99.90;;;;;;5026093;28;20320;-69
2022/05/08 06:31:50;;;;;;;22.23;15.70;;;13.00;99.90;;;;;;5027462;28;20022;-69
2022/05/08 06:34:16;;;;;;;25.30;16.50;;;13.10;99.90;;;;;;5009980;28;20033;-69
2022/05/08 06:36:42;;;;;;;22.00;15.05;;;13.20;99.90;;;;;;5027310;28;20033;-69
2022/05/08 06:39:08;;;;;;;24.45;15.15;;;13.20;99.90;;;;;;5009773;28;20028;-69
2022/05/08 06:41:33;;;;;;;20.88;15.10;;;13.30;99.90;;;;;;5026254;28;20212;-68
2022/05/08 06:43:59;;;;;;;23.08;15.18;;;13.30;99.90;;;;;;5027200;28;20240;-67
2022/05/08 06:46:25;;;;;;;21.35;15.52;;;13.40;99.90;;;;;;5026823;28;20080;-69
2022/05/08 06:48:51;;;;;;;22.80;15.45;;;13.60;99.90;;;;;;5027556;28;20208;-69
2022/05/08 06:51:16;;;;;;;21.92;15.40;;;13.60;99.90;;;;;;5025839;28;20030;-69
2022/05/08 06:53:43;;;;;;;23.42;16.00;;;13.50;99.90;;;;;;5009275;28;20054;-68
2022/05/08 06:56:13;;;;;;;25.65;16.30;;;13.60;99.90;;;;;;5025950;28;20403;-66
2022/05/08 07:01:43;;;;;;;21.08;14.70;;;13.50;99.90;;;;;;5025851;28;20269;-69
2022/05/08 07:04:10;;;;;;;19.58;13.95;;;13.60;99.90;;;;;;5025897;28;20044;-68
2022/05/08 07:06:38;;;;;;;19.83;14.68;;;13.70;99.90;;;;;;5009508;28;20028;-67
2022/05/08 07:09:05;;;;;;;22.77;14.60;;;13.90;99.90;;;;;;5025685;28;20026;-68
2022/05/08 07:11:31;;;;;;;20.85;14.55;;;14.10;99.90;;;;;;5009190;28;20026;-67
2022/05/08 07:13:58;;;;;;;18.73;13.80;;;14.20;99.90;;;;;;5025548;28;20033;-68
2022/05/08 07:16:24;;;;;;;25.23;15.07;;;14.20;99.90;;;;;;5024775;28;20056;-68
2022/05/08 07:18:50;;;;;;;20.02;13.88;;;14.20;99.90;;;;;;5025202;28;20315;-68
2022/05/08 07:21:16;;;;;;;22.25;14.18;;;14.30;99.90;;;;;;5025327;28;20022;-68
2022/05/08 07:23:42;;;;;;;22.33;14.38;;;14.20;99.90;;;;;;5026395;28;20057;-68
2022/05/08 07:26:07;;;;;;;20.55;14.27;;;14.20;99.90;;;;;;5025083;28;20034;-69
2022/05/08 07:28:33;;;;;;;22.27;13.70;;;14.30;99.90;;;;;;5024786;28;20046;-69
2022/05/08 07:30:59;;;;;;;19.42;12.80;;;14.20;99.80;;;;;;5026116;28;20047;-69
2022/05/08 07:33:25;;;;;;;20.42;12.77;;;14.20;99.90;;;;;;5026129;28;20033;-69
2022/05/08 07:38:36;;;;;;;16.75;12.00;;;14.30;99.90;;;;;;5025166;28;20010;-69
2022/05/08 07:41:02;;;;;;;15.70;12.35;;;14.50;99.90;;;;;;5025146;28;20034;-68
2022/05/08 07:43:28;;;;;;;16.70;12.13;;;14.70;99.20;;;;;;5024887;28;20366;-68
2022/05/08 07:45:54;;;;;;;14.45;11.27;;;14.70;98.80;;;;;;5026040;28;20057;-70
2022/05/08 07:48:20;;;;;;;17.95;10.65;;;14.80;98.70;;;;;;5024668;28;20333;-69
2022/05/08 07:50:46;;;;;;;15.90;10.98;;;14.90;98.20;;;;;;5008432;28;20045;-70
2022/05/08 07:53:12;;;;;;;17.58;11.68;;;14.90;98.00;;;;;;5008464;28;20018;-70
2022/05/08 07:55:39;;;;;;;16.00;10.77;;;14.90;98.00;;;;;;5025458;28;20037;-70
2022/05/08 07:58:05;;;;;;;18.98;10.45;;;14.80;98.20;;;;;;5025335;28;20022;-69
2022/05/08 08:00:31;;;;;;;15.23;10.13;;;14.90;97.80;;;;;;5024729;28;20025;-70
2022/05/08 08:02:56;;;;;;;15.02;10.48;;;14.90;97.80;;;;;;5024184;28;20245;-70
2022/05/08 08:05:22;;;;;;;17.00;11.27;;;15.10;97.40;;;;;;5024607;28;20022;-70
2022/05/08 08:07:49;;;;;;;13.80;10.23;;;15.20;97.70;;;;;;5025554;28;20109;-70
2022/05/08 08:10:15;;;;;;;15.60;10.75;;;15.30;97.40;;;;;;4992074;28;20115;-70
2022/05/08 08:12:41;;;;;;;17.85;10.10;;;15.40;96.90;;;;;;5024412;28;20096;-71
2022/05/08 08:15:08;;;;;;;15.20;9.98;;;15.50;97.00;;;;;;5008006;28;20037;-70
2022/05/08 08:17:34;;;;;;;15.13;10.35;;;15.60;96.60;;;;;;5008113;28;20194;-70
2022/05/08 08:19:59;;;;;;;13.45;10.10;;;15.60;96.50;;;;;;5025126;28;20033;-69
2022/05/08 08:22:25;;;;;;;14.93;9.68;;;15.50;96.40;;;;;;5025302;28;20022;-67
2022/05/08 08:24:51;;;;;;;12.75;9.93;;;15.70;96.50;;;;;;5022429;28;20095;-67
2022/05/08 08:27:18;;;;;;;13.45;9.50;;;15.80;96.20;;;;;;5024879;28;20064;-67
2022/05/08 08:29:45;;;;;;;15.50;9.98;;;15.60;96.50;;;;;;5023102;28;20321;-68
2022/05/08 08:32:10;;;;;;;12.15;8.68;;;15.60;96.10;;;;;;5025210;28;20045;-68
2022/05/08 08:34:36;;;;;;;11.95;8.18;;;15.70;96.40;;;;;;5024536;28;20040;-68
2022/05/08 08:37:02;;;;;;;12.13;8.30;;;15.60;95.50;;;;;;5024990;28;20105;-69
2022/05/08 08:39:27;;;;;;;14.80;7.85;;;15.60;95.20;;;;;;5024960;28;20060;-69
2022/05/08 08:42:07;;;;;;;12.50;8.10;;;15.60;95.40;;;;;;5023863;28;20025;-70
2022/05/08 08:50:05;;;;;;;9.73;7.35;;;15.50;95.30;;;;;;5010167;28;20114;-70
2022/05/08 08:52:32;;;;;;;7.78;6.60;;;15.60;95.00;;;;;;5023649;28;20120;-69
2022/05/08 08:54:58;;;;;;;10.32;7.40;;;15.70;95.10;;;;;;5024079;28;20356;-68
2022/05/08 08:57:24;;;;;;;10.23;7.65;;;15.90;94.70;;;;;;5024413;28;20058;-71
2022/05/08 08:59:50;;;;;;;11.02;7.40;;;16.10;94.00;;;;;;5023363;28;20129;-68
2022/05/08 09:02:17;;;;;;;11.20;7.35;;;16.00;94.30;;;;;;5024457;28;20144;-69
2022/05/08 09:04:49;;;;;;;9.88;7.55;;;16.10;94.60;;;;;;5007149;28;20029;-66
2022/05/08 09:07:45;;;;;;;9.93;7.47;;;16.30;94.30;;;;;;5007459;28;20040;-69
2022/05/08 09:10:24;;;;;;;9.57;7.28;;;16.40;93.70;;;;;;5010936;28;20022;-69
2022/05/08 09:13:06;;;;;;;10.70;7.40;;;16.60;93.60;;;;;;5024658;28;20193;-67
2022/05/08 09:15:35;;;;;;;12.95;7.65;;;16.80;93.00;;;;;;5023349;28;20026;-70
2022/05/08 09:18:08;;;;;;;9.75;7.03;;;16.90;92.80;;;;;;5023222;28;20083;-69
2022/05/08 09:20:39;;;;;;;9.60;7.25;;;16.90;92.60;;;;;;5022844;28;20044;-68
2022/05/08 09:23:25;;;;;;;16.38;7.70;;;17.00;92.80;;;;;;4991227;28;20018;-70
2022/05/08 09:26:03;;;;;;;11.63;7.25;;;16.90;92.90;;;;;;5007745;28;20021;-69
2022/05/08 09:28:31;;;;;;;10.48;7.10;;;16.90;92.90;;;;;;5022773;28;20048;-70
2022/05/08 09:31:11;;;;;;;10.50;7.78;;;16.80;92.80;;;;;;4990593;28;20037;-70
2022/05/08 09:33:51;;;;;;;11.65;7.75;;;16.80;92.90;;;;;;5022917;28;20032;-69
2022/05/08 09:36:25;;;;;;;9.23;6.80;;;16.80;92.80;;;;;;5006566;28;20216;-68
2022/05/08 09:38:53;;;;;;;9.85;7.10;;;16.80;92.60;;;;;;5007046;28;20033;-68
2022/05/08 09:41:26;;;;;;;9.95;7.15;;;16.80;92.80;;;;;;5022416;28;20324;-70
2022/05/08 09:43:54;;;;;;;7.38;6.13;;;17.00;92.70;;;;;;5023941;28;20022;-69
2022/05/08 09:46:20;;;;;;;11.18;6.50;;;17.00;92.50;;;;;;5022763;28;20097;-69
2022/05/08 09:48:47;;;;;;;10.02;6.60;;;17.10;92.30;;;;;;5022575;28;20037;-68
2022/05/08 09:51:15;;;;;;;8.95;6.05;;;17.10;92.40;;;;;;5022605;28;20025;-68
2022/05/08 09:53:43;;;;;;;10.30;6.57;;;17.20;92.30;;;;;;4990208;28;20053;-69
2022/05/08 09:56:10;;;;;;;6.15;4.93;;;17.30;91.80;;;;;;5006326;28;20068;-70
2022/05/08 09:58:41;;;;;;;7.50;5.57;;;17.30;91.50;;;;;;4990044;28;20209;-68
2022/05/08 10:01:07;;;;;;;8.18;5.15;;;17.30;91.70;;;;;;5023686;28;20021;-69
2022/05/08 10:03:34;;;;;;;5.78;4.97;;;17.50;90.90;;;;;;5022560;28;20026;-68
2022/05/08 10:06:00;;;;;;;7.82;4.88;;;17.60;91.10;;;;;;5022210;28;20017;-68
2022/05/08 10:08:30;;;;;;;7.18;4.75;;;17.80;90.80;;;;;;5023970;28;20103;-69
2022/05/08 10:13:53;;;;;;;5.32;4.10;;;17.90;90.20;;;;;;5009044;28;20049;-69
2022/05/08 10:16:59;;;;;;;5.80;4.15;;;17.90;90.00;;;;;;5022365;28;20309;-69
2022/05/08 10:19:45;;;;;;;6.15;3.55;;;18.00;89.00;;;;;;5011896;28;20065;-69
2022/05/08 10:22:13;;;;;;;7.65;4.10;;;17.90;88.80;;;;;;5022723;28;20022;-69
2022/05/08 10:24:42;;;;;;;4.15;3.60;;;17.90;88.50;;;;;;5023531;28;20313;-68
2022/05/08 10:27:18;;;;;;;4.10;3.30;;;18.00;88.40;;;;;;5022134;28;20072;-69
2022/05/08 10:30:24;;;;;;;12.65;3.40;;;18.10;86.50;;;;;;5023636;28;20028;-69
2022/05/08 10:32:50;;;;;;;5.70;3.47;;;18.10;85.90;;;;;;5011739;28;20245;-69
2022/05/08 10:35:25;;;;;;;6.65;3.00;;;18.30;85.40;;;;;;5022084;28;20089;-68
2022/05/08 10:38:16;;;;;;;4.35;3.28;;;18.20;83.60;;;;;;5022647;28;20308;-69
2022/05/08 10:40:42;;;;;;;4.05;2.97;;;18.10;86.10;;;;;;5022484;28;20018;-70
2022/05/08 10:43:26;;;;;;;5.78;4.22;;;18.30;86.70;;;;;;5023105;28;20036;-68
2022/05/08 10:45:52;;;;;;;4.68;3.03;;;18.30;86.90;;;;;;5022228;28;20021;-69
2022/05/08 10:48:19;;;;;;;4.25;3.00;;;18.60;86.40;;;;;;5022221;28;20022;-70
2022/05/08 10:51:00;;;;;;;5.10;3.08;;;18.70;85.00;;;;;;5023265;28;20021;-70
2022/05/08 10:53:32;;;;;;;3.70;3.17;;;18.80;83.80;;;;;;5026520;28;20057;-70
2022/05/08 10:56:06;;;;;;;3.97;3.38;;;18.80;84.00;;;;;;5025960;28;20022;-69
2022/05/08 10:58:33;;;;;;;3.97;2.63;;;18.70;84.60;;;;;;5025280;28;20316;-67
2022/05/08 11:01:02;;;;;;;5.82;3.28;;;18.70;84.70;;;;;;5025696;28;20084;-70
2022/05/08 11:03:29;;;;;;;5.45;3.47;;;18.80;85.50;;;;;;5009760;28;20018;-68
2022/05/08 11:05:55;;;;;;;4.57;3.00;;;18.90;85.20;;;;;;5026937;28;20254;-69
2022/05/08 11:08:31;;;;;;;3.25;2.33;;;19.00;84.40;;;;;;5025543;28;20216;-70
2022/05/08 11:10:59;;;;;;;3.97;2.28;;;18.90;81.40;;;;;;5026410;28;20045;-69
2022/05/08 11:13:27;;;;;;;4.15;2.28;;;19.00;81.80;;;;;;5026539;28;20036;-70
2022/05/08 11:15:53;;;;;;;2.80;2.60;;;18.90;81.40;;;;;;5025606;28;20021;-70
2022/05/08 11:18:22;;;;;;;5.55;2.78;;;19.00;82.40;;;;;;5026590;28;20419;-70
2022/05/08 11:20:57;;;;;;;3.42;1.90;;;19.20;82.80;;;;;;5009012;28;20040;-68
2022/05/08 11:23:25;;;;;;;4.15;2.10;;;19.10;80.20;;;;;;5009687;28;20061;-68
2022/05/08 11:25:53;;;;;;;2.67;2.35;;;18.90;79.50;;;;;;5025109;28;20363;-70
2022/05/08 11:28:21;;;;;;;4.07;2.50;;;18.90;81.70;;;;;;5023229;28;20073;-69
2022/05/08 11:30:48;;;;;;;4.38;2.40;;;19.10;80.80;;;;;;5025312;28;20026;-70
2022/05/08 11:36:05;;;;;;;2.90;1.80;;;19.10;79.60;;;;;;5024984;28;20022;-69
2022/05/08 11:38:53;;;;;;;2.00;1.80;;;19.20;78.90;;;;;;5026329;28;20026;-68
2022/05/08 11:41:21;;;;;;;3.20;2.40;;;19.30;78.60;;;;;;5025182;28;20045;-68
2022/05/08 11:43:50;;;;;;;3.30;2.03;;;19.40;78.80;;;;;;4992603;28;20048;-72
2022/05/08 11:46:18;;;;;;;3.47;2.03;;;19.70;78.40;;;;;;5024715;28;20022;-69
2022/05/08 11:48:46;;;;;;;2.30;2.03;;;19.80;78.70;;;;;;5026093;28;20036;-70
2022/05/08 11:51:14;;;;;;;3.05;2.10;;;19.90;77.90;;;;;;4992766;28;20034;-70
2022/05/08 11:53:45;;;;;;;4.22;2.70;;;19.80;79.00;;;;;;5024450;28;20120;-68
2022/05/08 11:56:30;;;;;;;;;;;19.80;79.00;;;;;;5026357;28;20241;-72
2022/05/08 11:58:57;;;;;;;3.10;2.05;;;19.80;79.20;;;;;;5025552;28;19947;-72
2022/05/08 12:01:25;;;;;;;3.00;2.13;;;19.90;78.70;;;;;;5024417;28;20088;-68
2022/05/08 12:03:51;;;;;;;3.83;2.13;;;20.20;78.10;;;;;;5025435;28;20137;-69
2022/05/08 12:06:17;;;;;;;3.08;1.80;;;20.30;78.00;;;;;;5025685;28;20217;-68
2022/05/08 12:08:43;;;;;;;2.85;1.60;;;20.60;76.40;;;;;;5008269;28;20021;-70
2022/05/08 12:11:26;;;;;;;3.75;1.77;;;20.80;75.70;;;;;;5024555;28;20036;-69
2022/05/08 12:14:01;;;;;;;3.00;1.67;;;21.20;75.00;;;;;;5008101;28;20308;-69
2022/05/08 12:16:27;;;;;;;3.17;1.85;;;21.40;74.20;;;;;;5008387;28;20029;-70
2022/05/08 12:19:11;;;;;;;3.95;1.95;;;21.30;72.90;;;;;;5025664;28;20021;-70
2022/05/08 12:21:38;;;;;;;2.75;1.50;;;21.20;72.70;;;;;;5008017;28;20037;-70
2022/05/08 12:24:13;;;;;;;2.58;0.95;;;21.10;73.30;;;;;;5025222;28;20100;-70
2022/05/08 12:26:39;;;;;;;3.47;1.20;;;21.60;72.20;;;;;;5007999;28;20221;-70
2022/05/08 12:29:07;;;;;;;2.15;1.27;;;22.00;69.30;;;;;;5022406;28;20022;-70
2022/05/08 12:31:34;;;;;;;2.40;1.30;;;22.20;68.30;;;;;;5024114;28;20022;-69
2022/05/08 12:34:00;;;;;;;2.35;1.15;;;22.30;68.30;;;;;;5024904;28;20349;-70
2022/05/08 12:36:26;;;;;;;2.97;1.30;;;22.40;67.70;;;;;;5023949;28;20026;-69
2022/05/08 12:38:52;;;;;;;4.63;1.20;;;22.40;67.50;;;;;;5024088;28;20320;-69
2022/05/08 12:41:17;;;;;;;1.80;1.45;;;22.20;67.30;;;;;;5024045;28;20026;-70
2022/05/08 12:43:43;;;;;;;2.75;1.67;;;21.90;68.60;;;;;;5024759;28;20064;-69
2022/05/08 12:46:09;;;;;;;1.73;1.23;;;21.60;69.80;;;;;;5023815;28;20201;-69
2022/05/08 12:48:35;;;;;;;3.40;1.40;;;21.30;70.00;;;;;;5024968;28;20060;-68
2022/05/08 12:51:00;;;;;;;3.00;1.17;;;21.40;69.30;;;;;;5023897;28;20088;-69
2022/05/08 12:53:26;;;;;;;2.05;0.90;;;21.50;68.60;;;;;;5023308;28;20300;-69
2022/05/08 12:55:52;;;;;;;3.97;1.10;;;21.60;68.40;;;;;;5023771;28;20297;-69
2022/05/08 13:01:04;;;;;;;2.08;1.15;;;22.10;67.10;;;;;;5023807;28;20014;-69
2022/05/08 13:03:30;;;;;;;1.52;1.02;;;22.30;65.60;;;;;;5006708;28;20026;-70
2022/05/08 13:05:55;;;;;;;2.80;1.02;;;22.30;64.90;;;;;;5023626;28;20033;-68